createdAt,value
2018-05-29T00:00:27.606Z,17.80
2018-05-29T00:02:57.034Z,17.70
2018-05-29T00:05:26.830Z,17.70
2018-05-29T00:08:03.850Z,17.70
2018-05-29T00:10:35.754Z,17.70
2018-05-29T00:13:09.511Z,17.80
2018-05-29T00:15:39.930Z,17.80
2018-05-29T00:18:11.888Z,17.90
2018-05-29T00:20:42.094Z,17.90
2018-05-29T00:23:11.605Z,17.90
2018-05-29T00:25:41.212Z,17.80
2018-05-29T00:28:12.022Z,17.70
2018-05-29T00:30:42.484Z,17.60
2018-05-29T00:33:12.284Z,17.80
2018-05-29T00:35:41.430Z,17.80
2018-05-29T00:38:12.972Z,17.80
2018-05-29T00:40:42.942Z,17.80
2018-05-29T00:43:12.350Z,17.80
2018-05-29T00:45:50.939Z,17.80
2018-05-29T00:48:20.467Z,17.70
2018-05-29T00:53:33.430Z,17.50
2018-05-29T00:56:04.235Z,17.60
2018-05-29T00:58:36.315Z,17.60
2018-05-29T01:01:06.310Z,17.30
2018-05-29T01:03:35.491Z,17.10
2018-05-29T01:06:05.926Z,17.40
2018-05-29T01:08:35.438Z,17.40
2018-05-29T01:11:16.147Z,17.50
2018-05-29T01:13:46.291Z,17.50
2018-05-29T01:16:17.992Z,17.40
2018-05-29T01:18:46.952Z,17.30
2018-05-29T01:21:17.316Z,17.30
2018-05-29T01:23:46.505Z,17.20
2018-05-29T01:26:15.532Z,17.10
2018-05-29T01:28:44.606Z,17.00
2018-05-29T01:31:14.722Z,16.90
2018-05-29T01:33:43.917Z,16.70
2018-05-29T01:36:13.286Z,16.60
2018-05-29T01:38:55.617Z,16.60
2018-05-29T01:41:25.858Z,16.60
2018-05-29T01:43:55.191Z,16.60
2018-05-29T01:46:28.738Z,16.50
2018-05-29T01:48:58.053Z,16.50
2018-05-29T01:51:27.847Z,16.50
2018-05-29T01:53:58.169Z,16.50
2018-05-29T01:56:29.080Z,16.60
2018-05-29T01:58:58.839Z,16.50
2018-05-29T02:01:35.349Z,16.50
2018-05-29T02:04:05.318Z,16.50
2018-05-29T02:06:38.966Z,16.50
2018-05-29T02:09:08.232Z,16.50
2018-05-29T02:11:39.316Z,16.40
2018-05-29T02:14:09.831Z,16.30
2018-05-29T02:16:39.686Z,16.30
2018-05-29T02:19:08.782Z,16.30
2018-05-29T02:21:38.853Z,16.30
2018-05-29T02:24:08.078Z,16.20
2018-05-29T02:26:37.071Z,16.20
2018-05-29T02:29:22.578Z,16.10
2018-05-29T02:31:51.597Z,16.20
2018-05-29T02:34:21.792Z,16.20
2018-05-29T02:36:51.294Z,16.20
2018-05-29T02:39:25.622Z,16.30
2018-05-29T02:42:08.515Z,16.20
2018-05-29T02:44:37.869Z,16.20
2018-05-29T02:47:07.327Z,16.10
2018-05-29T02:49:37.866Z,16.00
2018-05-29T02:52:08.662Z,15.90
2018-05-29T02:54:38.662Z,15.90
2018-05-29T02:57:08.248Z,15.90
2018-05-29T02:59:38.206Z,15.90
2018-05-29T03:02:07.696Z,15.90
2018-05-29T03:04:37.834Z,16.00
2018-05-29T03:07:08.770Z,15.80
2018-05-29T03:09:38.020Z,15.80
2018-05-29T03:12:16.075Z,15.80
2018-05-29T03:14:45.517Z,15.80
2018-05-29T03:17:16.212Z,15.70
2018-05-29T03:19:45.614Z,15.70
2018-05-29T03:22:14.817Z,15.80
2018-05-29T03:24:43.753Z,15.70
2018-05-29T03:27:13.782Z,15.80
2018-05-29T03:29:42.776Z,15.80
2018-05-29T03:32:12.002Z,15.80
2018-05-29T03:34:41.389Z,15.80
2018-05-29T03:37:12.152Z,15.90
2018-05-29T03:39:41.363Z,15.80
2018-05-29T03:42:10.749Z,15.70
2018-05-29T03:44:48.068Z,15.70
2018-05-29T03:47:17.370Z,15.80
2018-05-29T03:49:48.983Z,15.70
2018-05-29T03:52:19.273Z,15.70
2018-05-29T03:54:48.551Z,15.70
2018-05-29T03:57:17.914Z,15.70
2018-05-29T03:59:47.826Z,15.80
2018-05-29T04:02:16.948Z,15.80
2018-05-29T04:04:47.591Z,16.10
2018-05-29T04:07:16.629Z,16.10
2018-05-29T04:09:45.848Z,16.20
2018-05-29T04:12:15.662Z,16.30
2018-05-29T04:14:45.221Z,16.30
2018-05-29T04:17:14.422Z,16.20
2018-05-29T04:19:43.978Z,16.10
2018-05-29T04:22:13.714Z,16.20
2018-05-29T04:24:43.468Z,16.20
2018-05-29T04:27:12.929Z,16.40
2018-05-29T04:29:43.086Z,16.40
2018-05-29T04:32:21.110Z,16.40
2018-05-29T04:34:52.725Z,16.50
2018-05-29T04:37:21.842Z,16.50
2018-05-29T04:39:51.731Z,16.80
2018-05-29T04:42:20.997Z,16.80
2018-05-29T04:44:50.830Z,17.10
2018-05-29T04:47:19.863Z,17.00
2018-05-29T04:49:50.549Z,17.10
2018-05-29T04:52:27.762Z,17.20
2018-05-29T04:54:57.031Z,17.40
2018-05-29T04:57:38.124Z,17.60
2018-05-29T05:00:13.549Z,17.60
2018-05-29T05:02:43.356Z,17.80
2018-05-29T05:05:13.210Z,17.80
2018-05-29T05:07:42.998Z,17.90
2018-05-29T05:10:17.770Z,17.80
2018-05-29T05:12:47.875Z,17.70
2018-05-29T05:15:16.803Z,17.70
2018-05-29T05:17:46.974Z,18.10
2018-05-29T05:20:16.787Z,18.10
2018-05-29T05:22:46.689Z,18.90
2018-05-29T05:25:17.334Z,18.80
2018-05-29T05:27:46.642Z,19.40
2018-05-29T05:30:15.752Z,19.50
2018-05-29T05:32:45.015Z,19.80
2018-05-29T05:35:14.867Z,20.00
2018-05-29T05:37:43.967Z,20.20
2018-05-29T05:40:17.375Z,20.10
2018-05-29T05:42:50.239Z,19.70
2018-05-29T05:45:20.209Z,19.80
2018-05-29T05:47:49.382Z,19.80
2018-05-29T05:50:20.391Z,19.90
2018-05-29T05:58:06.803Z,20.10
2018-05-29T06:00:38.657Z,20.20
2018-05-29T06:03:13.862Z,20.10
2018-05-29T06:05:43.147Z,20.00
2018-05-29T06:08:12.425Z,19.80
2018-05-29T06:10:41.920Z,19.90
2018-05-29T06:13:10.968Z,20.10
2018-05-29T06:15:39.961Z,20.30
2018-05-29T06:18:09.173Z,20.40
2018-05-29T06:20:38.304Z,20.30
2018-05-29T06:23:07.607Z,20.50
2018-05-29T06:25:37.347Z,20.80
2018-05-29T06:28:06.737Z,20.80
2018-05-29T06:30:36.844Z,20.90
2018-05-29T06:33:06.686Z,21.20
2018-05-29T06:35:35.713Z,21.20
2018-05-29T06:38:06.289Z,21.50
2018-05-29T06:44:09.061Z,21.90
2018-05-29T06:46:38.912Z,21.60
2018-05-29T06:49:08.837Z,21.40
2018-05-29T06:51:37.903Z,21.50
2018-05-29T06:54:07.974Z,21.30
2018-05-29T06:56:37.013Z,21.30
2018-05-29T06:59:06.862Z,21.10
2018-05-29T07:01:38.413Z,21.10
2018-05-29T07:06:40.889Z,21.10
2018-05-29T07:09:10.014Z,21.30
2018-05-29T07:11:39.730Z,21.40
2018-05-29T07:14:09.629Z,21.40
2018-05-29T07:16:39.219Z,21.40
2018-05-29T07:19:08.236Z,21.50
2018-05-29T07:21:38.442Z,21.70
2018-05-29T07:24:17.909Z,21.70
2018-05-29T07:26:47.231Z,21.90
2018-05-29T07:29:18.247Z,22.00
2018-05-29T07:31:47.524Z,22.00
2018-05-29T07:34:18.573Z,22.00
2018-05-29T07:36:49.595Z,21.90
2018-05-29T07:39:20.528Z,21.70
2018-05-29T07:41:52.530Z,21.60
2018-05-29T07:44:31.654Z,21.50
2018-05-29T07:47:09.693Z,21.50
2018-05-29T07:49:41.082Z,21.40
2018-05-29T07:52:11.095Z,21.50
2018-05-29T07:54:40.389Z,21.70
2018-05-29T07:57:09.736Z,21.80
2018-05-29T07:59:38.977Z,22.30
2018-05-29T08:02:17.133Z,22.80
2018-05-29T08:04:47.244Z,22.90
2018-05-29T08:07:16.926Z,22.90
2018-05-29T08:09:47.467Z,22.50
2018-05-29T08:12:17.307Z,22.60
2018-05-29T08:14:47.262Z,22.50
2018-05-29T08:17:21.858Z,22.50
2018-05-29T08:19:51.576Z,22.40
2018-05-29T08:22:20.561Z,22.40
2018-05-29T08:24:51.353Z,22.20
2018-05-29T08:27:24.737Z,22.00
2018-05-29T08:29:53.844Z,22.00
2018-05-29T08:32:23.866Z,21.80
2018-05-29T08:34:53.074Z,21.80
2018-05-29T08:37:23.484Z,21.80
2018-05-29T08:39:53.114Z,21.80
2018-05-29T08:42:22.994Z,22.00
2018-05-29T08:44:51.918Z,22.00
2018-05-29T08:47:21.628Z,22.50
2018-05-29T08:49:57.478Z,22.60
2018-05-29T08:52:26.888Z,22.80
2018-05-29T08:54:56.730Z,23.20
2018-05-29T08:57:26.355Z,23.20
2018-05-29T08:59:56.101Z,23.70
2018-05-29T09:02:27.964Z,23.00
2018-05-29T09:04:58.720Z,22.40
2018-05-29T09:07:29.547Z,22.50
2018-05-29T09:09:59.427Z,22.60
2018-05-29T09:12:28.420Z,22.60
2018-05-29T09:14:58.163Z,22.80
2018-05-29T09:17:27.658Z,22.70
2018-05-29T09:20:00.532Z,22.90
2018-05-29T09:22:31.491Z,22.80
2018-05-29T09:25:04.373Z,22.50
2018-05-29T09:27:34.122Z,22.50
2018-05-29T09:30:03.598Z,22.50
2018-05-29T09:32:33.818Z,22.40
2018-05-29T09:35:03.997Z,22.20
2018-05-29T09:37:33.264Z,22.20
2018-05-29T09:40:03.466Z,22.10
2018-05-29T09:42:34.553Z,22.10
2018-05-29T09:45:05.571Z,22.10
2018-05-29T09:47:41.202Z,22.20
2018-05-29T09:50:12.470Z,22.00
2018-05-29T09:52:49.854Z,22.00
2018-05-29T09:55:19.788Z,21.70
2018-05-29T09:57:48.894Z,21.50
2018-05-29T10:00:22.232Z,21.50
2018-05-29T10:02:51.516Z,21.50
2018-05-29T10:05:21.930Z,21.60
2018-05-29T10:07:52.417Z,21.40
2018-05-29T10:10:22.267Z,21.40
2018-05-29T10:12:52.010Z,21.10
2018-05-29T10:15:21.489Z,21.00
2018-05-29T10:17:51.452Z,21.10
2018-05-29T10:20:21.446Z,21.00
2018-05-29T10:22:50.832Z,21.00
2018-05-29T10:25:27.796Z,20.80
2018-05-29T10:28:06.298Z,20.70
2018-05-29T10:30:36.190Z,20.80
2018-05-29T10:33:06.337Z,21.10
2018-05-29T10:35:36.070Z,21.00
2018-05-29T10:40:49.647Z,20.90
2018-05-29T10:43:18.969Z,20.90
2018-05-29T10:45:49.009Z,20.80
2018-05-29T10:48:21.574Z,20.80
2018-05-29T10:50:51.885Z,21.00
2018-05-29T10:53:24.791Z,21.30
2018-05-29T10:55:58.163Z,21.30
2018-05-29T10:58:29.317Z,21.50
2018-05-29T11:00:59.990Z,21.70
2018-05-29T11:03:31.596Z,21.80
2018-05-29T11:06:01.893Z,21.90
2018-05-29T11:08:31.310Z,21.90
2018-05-29T11:11:05.135Z,21.80
2018-05-29T11:13:36.773Z,21.50
2018-05-29T11:16:12.652Z,21.40
2018-05-29T11:18:51.354Z,21.40
2018-05-29T11:21:22.883Z,21.50
2018-05-29T11:23:53.131Z,21.90
2018-05-29T11:26:29.401Z,22.10
2018-05-29T11:28:59.022Z,22.20
2018-05-29T11:31:37.147Z,22.00
2018-05-29T11:34:09.209Z,21.90
2018-05-29T11:36:41.548Z,21.80
2018-05-29T11:39:11.909Z,21.70
2018-05-29T11:41:43.944Z,21.60
2018-05-29T11:44:13.965Z,21.60
2018-05-29T11:46:45.837Z,21.70
2018-05-29T11:49:17.961Z,21.80
2018-05-29T11:51:50.833Z,21.80
2018-05-29T11:54:22.634Z,21.70
2018-05-29T11:56:52.454Z,21.70
2018-05-29T11:59:22.824Z,21.60
2018-05-29T12:01:53.801Z,21.50
2018-05-29T12:04:23.181Z,21.60
2018-05-29T12:06:53.018Z,21.60
2018-05-29T12:09:23.354Z,21.50
2018-05-29T12:11:54.118Z,21.50
2018-05-29T12:14:25.412Z,21.50
2018-05-29T12:16:56.720Z,21.40
2018-05-29T12:19:29.185Z,21.50
2018-05-29T12:21:59.475Z,21.50
2018-05-29T12:24:30.200Z,21.70
2018-05-29T12:27:02.335Z,21.70
2018-05-29T12:29:44.666Z,21.90
2018-05-29T12:32:17.999Z,21.90
2018-05-29T12:34:49.966Z,21.90
2018-05-29T12:37:28.457Z,21.80
2018-05-29T12:40:05.367Z,21.80
2018-05-29T12:42:35.346Z,21.90
2018-05-29T12:45:06.318Z,21.90
2018-05-29T12:47:36.022Z,22.00
2018-05-29T12:50:07.313Z,22.10
2018-05-29T12:52:38.897Z,22.10
2018-05-29T12:55:09.554Z,22.20
2018-05-29T12:57:39.044Z,22.30
2018-05-29T13:00:08.370Z,22.40
2018-05-29T13:05:44.175Z,22.20
2018-05-29T13:08:13.919Z,22.20
2018-05-29T13:10:44.791Z,22.30
2018-05-29T13:13:18.302Z,22.50
2018-05-29T13:15:48.460Z,22.80
2018-05-29T13:18:19.408Z,23.30
2018-05-29T13:20:49.429Z,23.20
2018-05-29T13:23:19.447Z,23.20
2018-05-29T13:25:50.212Z,23.20
2018-05-29T13:28:20.338Z,23.00
2018-05-29T13:30:51.012Z,22.60
2018-05-29T13:33:23.957Z,22.60
2018-05-29T13:35:55.694Z,22.60
2018-05-29T13:38:26.219Z,22.30
2018-05-29T13:40:56.399Z,22.10
2018-05-29T13:43:29.185Z,21.90
2018-05-29T13:46:00.589Z,21.90
2018-05-29T13:48:31.444Z,21.90
2018-05-29T13:51:03.463Z,21.60
2018-05-29T13:53:38.500Z,21.50
2018-05-29T13:56:14.324Z,21.80
2018-05-29T13:58:49.362Z,21.80
2018-05-29T14:01:19.569Z,21.60
2018-05-29T14:03:50.164Z,21.40
2018-05-29T14:06:20.646Z,21.40
2018-05-29T14:08:52.298Z,21.40
2018-05-29T14:11:32.230Z,21.40
2018-05-29T14:14:19.815Z,21.40
2018-05-29T14:17:08.165Z,21.30
2018-05-29T14:19:56.513Z,21.30
2018-05-29T14:22:45.446Z,21.50
2018-05-29T14:25:27.278Z,21.50
2018-05-29T14:31:08.525Z,21.80
2018-05-29T14:34:07.155Z,21.70
2018-05-29T14:37:09.513Z,21.70
2018-05-29T14:39:54.635Z,22.00
2018-05-29T14:42:49.470Z,22.10
2018-05-29T14:46:04.401Z,22.10
2018-05-29T14:54:01.163Z,22.20
2018-05-29T14:57:08.698Z,22.10
2018-05-29T14:59:53.301Z,22.10
2018-05-29T15:02:24.436Z,22.20
2018-05-29T15:05:26.557Z,22.20
2018-05-29T15:08:08.474Z,22.20
2018-05-29T15:11:01.784Z,22.00
2018-05-29T15:13:40.620Z,21.90
2018-05-29T15:16:40.186Z,21.90
2018-05-29T15:19:24.163Z,21.90
2018-05-29T15:22:11.837Z,22.20
2018-05-29T15:24:43.651Z,22.40
2018-05-29T15:27:22.406Z,22.40
2018-05-29T15:30:11.300Z,22.30
2018-05-29T15:32:55.399Z,22.30
2018-05-29T15:35:24.980Z,22.20
2018-05-29T15:37:56.066Z,22.10
2018-05-29T15:40:27.870Z,22.10
2018-05-29T15:45:05.992Z,22.00
2018-05-29T15:47:36.595Z,22.00
2018-05-29T15:50:08.364Z,22.00
2018-05-29T15:52:40.422Z,22.00
2018-05-29T15:55:11.241Z,22.10
2018-05-29T15:57:41.377Z,22.10
2018-05-29T16:00:14.283Z,22.30
2018-05-29T16:02:47.693Z,22.30
2018-05-29T16:05:21.209Z,22.30
2018-05-29T16:07:51.090Z,22.20
2018-05-29T16:10:21.070Z,22.30
2018-05-29T16:12:51.803Z,22.20
2018-05-29T16:15:26.151Z,22.00
2018-05-29T16:17:55.751Z,22.10
2018-05-29T16:20:29.449Z,22.00
2018-05-29T16:23:02.957Z,21.90
2018-05-29T16:25:43.956Z,21.80
2018-05-29T16:28:14.634Z,21.80
2018-05-29T16:30:46.293Z,21.80
2018-05-29T16:33:18.414Z,21.70
2018-05-29T16:35:48.949Z,21.70
2018-05-29T16:38:20.924Z,21.70
2018-05-29T16:40:52.686Z,21.70
2018-05-29T16:43:25.354Z,21.70
2018-05-29T16:45:55.975Z,21.80
2018-05-29T16:48:26.315Z,21.80
2018-05-29T16:50:57.264Z,21.70
2018-05-29T16:53:29.043Z,21.70
2018-05-29T16:55:59.718Z,21.60
2018-05-29T16:58:33.613Z,21.60
2018-05-29T17:01:06.421Z,21.40
2018-05-29T17:03:42.960Z,21.40
2018-05-29T17:06:19.604Z,21.30
2018-05-29T17:08:49.548Z,21.30
2018-05-29T17:11:23.242Z,21.50
2018-05-29T17:13:58.444Z,21.50
2018-05-29T17:16:31.577Z,21.60
2018-05-29T17:19:04.566Z,21.60
2018-05-29T17:21:34.442Z,21.80
2018-05-29T17:24:12.851Z,21.90
2018-05-29T17:26:54.553Z,21.90
2018-05-29T17:29:26.211Z,21.90
2018-05-29T17:31:56.065Z,21.80
2018-05-29T17:34:29.897Z,21.80
2018-05-29T17:37:10.969Z,21.50
2018-05-29T17:39:51.185Z,21.50
2018-05-29T17:42:25.101Z,21.40
2018-05-29T17:44:56.237Z,21.30
2018-05-29T17:47:34.065Z,21.30
2018-05-29T17:50:07.087Z,21.10
2018-05-29T17:52:37.119Z,21.00
2018-05-29T17:55:11.705Z,21.00
2018-05-29T17:57:43.633Z,20.90
2018-05-29T18:00:26.092Z,20.80
2018-05-29T18:02:58.657Z,20.60
2018-05-29T18:05:32.852Z,20.50
2018-05-29T18:08:06.823Z,20.30
2018-05-29T18:10:47.355Z,20.20
2018-05-29T18:13:20.508Z,20.20
2018-05-29T18:15:56.657Z,20.10
2018-05-29T18:18:29.221Z,19.90
2018-05-29T18:21:05.937Z,19.90
2018-05-29T18:23:45.939Z,19.90
2018-05-29T18:26:21.371Z,19.90
2018-05-29T18:28:54.673Z,20.00
2018-05-29T18:31:36.329Z,20.00
2018-05-29T18:34:09.105Z,20.00
2018-05-29T18:36:42.598Z,20.00
2018-05-29T18:39:14.977Z,20.00
2018-05-29T18:41:50.887Z,19.90
2018-05-29T18:44:24.111Z,19.90
2018-05-29T18:46:57.725Z,20.00
2018-05-29T18:49:32.390Z,20.10
2018-05-29T18:52:05.038Z,20.10
2018-05-29T18:54:36.373Z,20.20
2018-05-29T18:57:09.702Z,20.20
2018-05-29T18:59:44.067Z,20.10
2018-05-29T19:02:14.854Z,20.10
2018-05-29T19:04:47.291Z,19.70
2018-05-29T19:07:17.533Z,19.70
2018-05-29T19:09:47.492Z,19.50
2018-05-29T19:12:17.114Z,19.30
2018-05-29T19:14:48.479Z,19.20
2018-05-29T19:17:23.379Z,19.20
2018-05-29T19:19:56.919Z,18.90
2018-05-29T19:22:31.927Z,18.60
2018-05-29T19:25:05.559Z,18.60
2018-05-29T19:27:37.556Z,18.50
2018-05-29T19:30:10.765Z,18.50
2018-05-29T19:32:50.870Z,18.20
2018-05-29T19:38:15.898Z,18.20
2018-05-29T19:40:47.367Z,18.00
2018-05-29T19:43:18.582Z,18.00
2018-05-29T19:45:51.253Z,17.90
2018-05-29T19:48:26.886Z,17.80
2018-05-29T19:51:02.501Z,17.70
2018-05-29T19:53:32.810Z,17.60
2018-05-29T19:56:03.753Z,17.60
2018-05-29T19:58:35.596Z,17.60
2018-05-29T20:01:31.986Z,17.50
2018-05-29T20:04:07.963Z,17.40
2018-05-29T20:06:38.051Z,17.40
2018-05-29T20:09:13.165Z,17.30
2018-05-29T20:11:44.178Z,17.30
2018-05-29T20:14:18.547Z,17.20
2018-05-29T20:16:56.906Z,17.10
2018-05-29T20:19:29.516Z,17.10
2018-05-29T20:22:02.123Z,17.00
2018-05-29T20:24:33.732Z,17.00
2018-05-29T20:27:05.421Z,17.00
2018-05-29T20:29:41.264Z,16.90
2018-05-29T20:32:13.158Z,16.90
2018-05-29T20:34:44.962Z,16.80
2018-05-29T20:37:16.984Z,16.80
2018-05-29T20:40:06.918Z,16.70
2018-05-29T20:42:38.201Z,16.70
2018-05-29T20:45:23.744Z,16.70
2018-05-29T20:47:57.207Z,16.60
2018-05-29T20:50:34.004Z,16.60
2018-05-29T20:53:04.410Z,16.60
2018-05-29T20:55:33.885Z,16.50
2018-05-29T20:58:04.607Z,16.50
2018-05-29T21:00:35.571Z,16.50
2018-05-29T21:03:05.450Z,17.50
2018-05-29T21:05:36.117Z,17.50
2018-05-29T21:10:46.574Z,17.30
2018-05-29T21:13:16.336Z,17.30
2018-05-29T21:15:45.992Z,17.10
2018-05-29T21:18:15.860Z,17.00
2018-05-29T21:20:47.039Z,16.90
2018-05-29T21:23:19.329Z,16.70
2018-05-29T21:25:49.177Z,16.70
2018-05-29T21:28:19.762Z,16.60
2018-05-29T21:30:49.803Z,16.20
2018-05-29T21:33:19.943Z,16.20
2018-05-29T21:35:49.650Z,16.10
2018-05-29T21:38:22.900Z,16.00
2018-05-29T21:40:52.582Z,16.00
2018-05-29T21:43:23.223Z,15.90
2018-05-29T21:46:00.457Z,15.80
2018-05-29T21:48:41.593Z,15.70
2018-05-29T21:51:12.514Z,15.70
2018-05-29T21:53:52.506Z,15.60
2018-05-29T21:56:25.170Z,15.60
2018-05-29T21:58:55.661Z,15.60
2018-05-29T22:01:33.699Z,15.50
2018-05-29T22:04:05.295Z,15.40
2018-05-29T22:06:37.179Z,15.30
2018-05-29T22:09:17.478Z,15.40
2018-05-29T22:11:49.146Z,15.50
2018-05-29T22:14:22.741Z,15.40
2018-05-29T22:16:52.357Z,15.50
2018-05-29T22:19:23.408Z,15.50
2018-05-29T22:22:00.878Z,15.50
2018-05-29T22:24:42.187Z,15.70
2018-05-29T22:27:12.312Z,15.60
2018-05-29T22:29:41.486Z,15.50
2018-05-29T22:32:10.370Z,15.50
2018-05-29T22:34:43.939Z,15.50
2018-05-29T22:37:14.916Z,15.50
2018-05-29T22:39:43.906Z,15.50
2018-05-29T22:42:13.759Z,15.30
2018-05-29T22:44:47.449Z,15.20
2018-05-29T22:47:26.864Z,15.00
2018-05-29T22:49:56.293Z,15.00
2018-05-29T22:52:25.200Z,15.00
2018-05-29T22:54:54.267Z,15.00
2018-05-29T22:57:23.170Z,14.90
2018-05-29T23:00:03.982Z,14.90
2018-05-29T23:02:35.578Z,14.90
2018-05-29T23:05:06.990Z,14.90
2018-05-29T23:07:36.703Z,14.80
2018-05-29T23:10:06.546Z,14.70
2018-05-29T23:12:35.507Z,14.70
2018-05-29T23:15:10.822Z,14.90
2018-05-29T23:17:45.581Z,14.80
2018-05-29T23:20:15.929Z,14.90
2018-05-29T23:22:44.815Z,15.00
2018-05-29T23:25:13.758Z,14.90
2018-05-29T23:27:43.001Z,14.90
2018-05-29T23:32:53.223Z,14.90
2018-05-29T23:35:31.069Z,14.90
2018-05-29T23:38:03.041Z,15.00
2018-05-29T23:40:42.694Z,15.00
2018-05-29T23:43:21.300Z,14.90
2018-05-29T23:45:50.623Z,14.80
2018-05-29T23:48:19.547Z,14.70
2018-05-29T23:50:49.358Z,14.40
2018-05-29T23:53:19.077Z,14.40
2018-05-29T23:55:49.044Z,14.50
2018-05-29T23:58:19.761Z,14.50
